Time;durP1;ratioP1;P1;durP2;ratioP2;P2;SDS_P1;SDS_P2;PMS_P1;PMS_P2;Temp;Humidity;BMP_temperature;BMP_pressure;BME280_temperature;BME280_humidity;BME280_pressure;Samples;Min_cycle;Max_cycle;Signal;HPM_P1;HPM_P2
2021/04/09 00:01:40;;;;;;;2.38;1.10;;;25.20;38.00;;;;;;5057361;28;20037;-52
2021/04/09 00:04:06;;;;;;;2.03;1.00;;;25.30;37.50;;;;;;5058221;28;20025;-51
2021/04/09 00:06:31;;;;;;;2.30;0.90;;;25.20;37.40;;;;;;5050758;28;20312;-54
2021/04/09 00:08:57;;;;;;;2.75;1.10;;;25.30;37.40;;;;;;5062886;28;20024;-54
2021/04/09 00:11:23;;;;;;;3.05;0.93;;;25.20;37.30;;;;;;5052812;28;20036;-56
2021/04/09 00:13:48;;;;;;;3.22;0.90;;;25.20;37.30;;;;;;5053686;28;20029;-55
2021/04/09 00:16:14;;;;;;;1.73;0.90;;;25.20;37.30;;;;;;5046964;28;20056;-53
2021/04/09 00:18:40;;;;;;;1.80;0.90;;;25.20;37.30;;;;;;5052259;28;20074;-55
2021/04/09 00:21:05;;;;;;;2.00;1.00;;;25.20;37.30;;;;;;5065247;28;20036;-53
2021/04/09 00:23:31;;;;;;;1.85;0.85;;;25.20;37.30;;;;;;5061791;28;20033;-55
2021/04/09 00:25:57;;;;;;;1.40;0.90;;;25.20;37.30;;;;;;5051796;28;20029;-57
2021/04/09 00:28:22;;;;;;;3.05;0.98;;;25.20;37.30;;;;;;5051082;28;20183;-57
2021/04/09 00:30:48;;;;;;;3.35;1.05;;;25.20;37.30;;;;;;5063794;28;20036;-53
2021/04/09 00:33:14;;;;;;;2.45;0.95;;;25.10;37.20;;;;;;5065000;28;20031;-57
2021/04/09 00:35:39;;;;;;;2.75;1.02;;;25.10;37.20;;;;;;5067289;28;20085;-55
2021/04/09 00:38:05;;;;;;;3.38;1.20;;;25.10;37.20;;;;;;5065360;28;20025;-54
2021/04/09 00:40:31;;;;;;;2.92;0.95;;;25.10;37.20;;;;;;5065746;28;20041;-58
2021/04/09 00:42:56;;;;;;;2.30;0.90;;;25.10;37.30;;;;;;5065204;28;20041;-56
2021/04/09 00:45:22;;;;;;;2.22;0.90;;;25.00;37.20;;;;;;5063681;28;20037;-56
2021/04/09 00:47:48;;;;;;;1.80;0.90;;;25.00;37.20;;;;;;5064335;28;20060;-51
2021/04/09 00:50:15;;;;;;;1.55;0.90;;;25.00;37.20;;;;;;5059382;28;20458;-51
2021/04/09 00:52:42;;;;;;;2.28;1.10;;;25.00;37.20;;;;;;5058611;28;20028;-55
2021/04/09 00:55:09;;;;;;;2.83;1.05;;;25.00;37.30;;;;;;5054831;28;20036;-51
2021/04/09 00:57:36;;;;;;;2.78;0.90;;;24.90;37.20;;;;;;5044577;28;20268;-51
2021/04/09 01:00:07;;;;;;;1.52;1.00;;;24.90;37.20;;;;;;5052756;28;20041;-51
2021/04/09 01:02:33;;;;;;;1.55;0.90;;;24.90;37.20;;;;;;5056996;28;20040;-53
2021/04/09 01:04:59;;;;;;;2.08;1.00;;;24.80;37.20;;;;;;5064639;28;20039;-55
2021/04/09 01:07:25;;;;;;;1.23;0.85;;;24.80;37.20;;;;;;5065125;28;20122;-54
2021/04/09 01:09:52;;;;;;;1.70;0.90;;;24.80;37.20;;;;;;5060018;28;20032;-50
2021/04/09 01:12:17;;;;;;;1.40;0.90;;;24.80;37.20;;;;;;5054310;28;20451;-55
2021/04/09 01:14:43;;;;;;;2.38;1.10;;;24.80;37.20;;;;;;5041482;28;20108;-54
2021/04/09 01:17:33;;;;;;;1.60;0.88;;;24.80;37.20;;;;;;5044179;28;20132;-51
2021/04/09 01:20:29;;;;;;;2.25;0.90;;;24.70;37.20;;;;;;5060508;28;20036;-51
2021/04/09 01:23:07;;;;;;;1.85;0.90;;;24.70;37.20;;;;;;5059969;28;20081;-51
2021/04/09 01:25:53;;;;;;;1.98;0.80;;;24.70;37.20;;;;;;5062202;28;20036;-51
2021/04/09 01:28:22;;;;;;;1.60;0.90;;;24.70;37.20;;;;;;5061910;28;20032;-54
2021/04/09 01:31:17;;;;;;;1.40;0.90;;;24.70;37.20;;;;;;5064092;28;20043;-54
2021/04/09 01:33:45;;;;;;;1.38;0.80;;;24.60;37.20;;;;;;5067975;28;20033;-53
2021/04/09 01:36:20;;;;;;;1.88;0.93;;;24.60;37.20;;;;;;5054001;28;20043;-51
2021/04/09 01:38:59;;;;;;;1.73;0.90;;;24.60;37.20;;;;;;5062282;28;20413;-52
2021/04/09 01:41:26;;;;;;;1.10;0.80;;;24.60;37.20;;;;;;5059845;28;20024;-55
2021/04/09 01:43:54;;;;;;;1.23;0.80;;;24.60;37.20;;;;;;5062602;28;20467;-55
2021/04/09 01:46:21;;;;;;;1.70;0.80;;;24.60;37.30;;;;;;5069688;28;20024;-52
2021/04/09 01:48:48;;;;;;;1.58;0.90;;;24.60;37.30;;;;;;5059383;28;20368;-51
2021/04/09 01:51:16;;;;;;;1.23;0.80;;;24.50;37.20;;;;;;5062549;28;20063;-54
2021/04/09 01:53:46;;;;;;;1.27;0.88;;;24.50;37.20;;;;;;5062939;28;20089;-56
2021/04/09 01:56:15;;;;;;;1.73;0.80;;;24.50;37.20;;;;;;5063540;28;20394;-56
2021/04/09 01:58:42;;;;;;;1.60;0.70;;;24.40;37.20;;;;;;5060166;28;20084;-52
2021/04/09 02:01:09;;;;;;;1.42;0.90;;;24.40;37.20;;;;;;5055296;28;20040;-54
2021/04/09 02:03:35;;;;;;;2.00;0.95;;;24.40;37.20;;;;;;5063752;28;20024;-48
2021/04/09 02:06:02;;;;;;;1.52;0.85;;;24.40;37.20;;;;;;5057966;28;20044;-48
2021/04/09 02:08:31;;;;;;;1.77;0.80;;;24.30;37.20;;;;;;5059461;28;20029;-53
2021/04/09 02:10:58;;;;;;;1.75;0.90;;;24.30;37.20;;;;;;5062928;28;20035;-54
2021/04/09 02:13:26;;;;;;;0.77;0.70;;;24.30;37.30;;;;;;5062683;28;20111;-53
2021/04/09 02:15:56;;;;;;;1.15;0.82;;;24.30;37.30;;;;;;5061963;28;20033;-54
2021/04/09 02:18:27;;;;;;;1.30;0.80;;;24.30;37.30;;;;;;5058811;28;20105;-57
2021/04/09 02:20:55;;;;;;;1.20;0.90;;;24.30;37.30;;;;;;5061606;28;20036;-54
2021/04/09 02:23:21;;;;;;;1.33;0.80;;;24.30;37.30;;;;;;5061183;28;20459;-52
2021/04/09 02:25:46;;;;;;;1.75;0.80;;;24.30;37.30;;;;;;5062612;28;20033;-50
2021/04/09 02:28:13;;;;;;;1.05;0.80;;;24.30;37.30;;;;;;5061975;28;20552;-57
2021/04/09 02:30:39;;;;;;;1.45;0.90;;;24.30;37.30;;;;;;5058225;28;20592;-55
2021/04/09 02:33:05;;;;;;;1.55;0.90;;;24.20;37.30;;;;;;5043927;28;20103;-56
2021/04/09 02:35:30;;;;;;;1.45;0.88;;;24.20;37.30;;;;;;5059156;28;20036;-52
2021/04/09 02:37:57;;;;;;;2.33;0.90;;;24.20;37.30;;;;;;5060882;28;20169;-53
2021/04/09 02:40:27;;;;;;;1.45;0.80;;;24.20;37.30;;;;;;5048637;28;20044;-56
2021/04/09 02:42:54;;;;;;;1.38;0.88;;;24.20;37.30;;;;;;5061616;28;20036;-54
2021/04/09 02:45:23;;;;;;;2.00;0.82;;;24.20;37.30;;;;;;5058123;28;20541;-55
2021/04/09 02:47:49;;;;;;;1.20;0.80;;;24.10;37.30;;;;;;5062231;28;20059;-54
2021/04/09 02:50:26;;;;;;;1.80;0.90;;;24.10;37.30;;;;;;5050809;28;20081;-54
2021/04/09 02:52:54;;;;;;;1.67;0.90;;;24.10;37.30;;;;;;5062687;28;20402;-51
2021/04/09 02:55:27;;;;;;;1.35;0.90;;;24.10;37.30;;;;;;5060434;28;20032;-52
2021/04/09 02:57:54;;;;;;;1.73;0.90;;;24.10;37.30;;;;;;5060738;28;20036;-59
2021/04/09 03:00:21;;;;;;;1.00;0.75;;;24.10;37.30;;;;;;5059440;28;20032;-54
2021/04/09 03:02:48;;;;;;;1.23;0.80;;;24.10;37.30;;;;;;5055662;28;20055;-53
2021/04/09 03:05:16;;;;;;;1.48;0.80;;;24.10;37.40;;;;;;5061070;28;20109;-56
2021/04/09 03:07:42;;;;;;;1.60;0.90;;;24.00;37.30;;;;;;5056952;28;20040;-50
2021/04/09 03:10:10;;;;;;;1.00;0.80;;;24.00;37.30;;;;;;5062226;28;20032;-50
2021/04/09 03:12:36;;;;;;;1.00;0.73;;;24.00;37.30;;;;;;5051954;28;20566;-50
2021/04/09 03:15:04;;;;;;;1.00;0.70;;;24.00;37.30;;;;;;5061590;28;20020;-51
2021/04/09 03:17:37;;;;;;;1.33;0.75;;;24.00;37.30;;;;;;5050274;28;20468;-53
2021/04/09 03:20:05;;;;;;;1.77;0.80;;;24.00;37.30;;;;;;5053581;28;20462;-52
2021/04/09 03:22:31;;;;;;;1.27;0.70;;;24.00;37.30;;;;;;5059987;28;20025;-52
2021/04/09 03:24:56;;;;;;;1.10;0.70;;;24.00;37.30;;;;;;5052566;28;20510;-51
2021/04/09 03:27:22;;;;;;;1.83;0.90;;;23.90;37.30;;;;;;5062250;28;20032;-53
2021/04/09 03:29:48;;;;;;;0.95;0.70;;;24.00;37.30;;;;;;5051124;28;20032;-53
2021/04/09 03:32:14;;;;;;;1.25;0.90;;;23.90;37.30;;;;;;5059798;28;20374;-56
2021/04/09 03:34:40;;;;;;;1.08;0.70;;;23.90;37.30;;;;;;5055955;28;20024;-51
2021/04/09 03:37:06;;;;;;;1.40;0.90;;;23.90;37.40;;;;;;5062371;28;20032;-51
2021/04/09 03:39:32;;;;;;;0.90;0.80;;;23.90;37.30;;;;;;5062518;28;20029;-55
2021/04/09 03:41:57;;;;;;;1.00;0.82;;;23.90;37.30;;;;;;5061275;28;20047;-55
2021/04/09 03:44:23;;;;;;;0.80;0.70;;;23.90;37.30;;;;;;5063399;28;20105;-52
2021/04/09 03:46:49;;;;;;;1.20;0.80;;;23.90;37.30;;;;;;5063744;28;20048;-53
2021/04/09 03:49:14;;;;;;;1.02;0.80;;;23.90;37.30;;;;;;5066674;28;20487;-51
2021/04/09 03:51:40;;;;;;;1.38;0.80;;;23.90;37.40;;;;;;5064929;28;20076;-55
2021/04/09 03:54:06;;;;;;;2.25;0.80;;;23.90;37.30;;;;;;5065864;28;20031;-55
2021/04/09 03:56:31;;;;;;;1.98;0.80;;;23.90;37.40;;;;;;5065336;28;20141;-54
2021/04/09 03:58:57;;;;;;;1.50;0.90;;;23.80;37.80;;;;;;5056701;28;20788;-55
2021/04/09 04:01:29;;;;;;;1.15;0.70;;;23.80;37.30;;;;;;5046448;28;20040;-54
2021/04/09 04:03:54;;;;;;;1.17;0.75;;;23.80;37.40;;;;;;5066121;28;20430;-55
2021/04/09 04:06:20;;;;;;;0.82;0.60;;;23.80;37.30;;;;;;5058358;28;20028;-53
2021/04/09 04:08:46;;;;;;;1.25;0.80;;;23.80;37.30;;;;;;5066268;28;20115;-57
2021/04/09 04:11:11;;;;;;;1.33;0.80;;;23.80;37.80;;;;;;5065937;28;20047;-58
2021/04/09 04:13:37;;;;;;;1.15;0.80;;;23.80;37.30;;;;;;5063545;28;20391;-54
2021/04/09 04:16:03;;;;;;;1.75;0.90;;;23.80;37.30;;;;;;5049874;28;20044;-55
2021/04/09 04:18:28;;;;;;;1.33;0.77;;;23.80;37.30;;;;;;5062233;28;20028;-53
2021/04/09 04:20:54;;;;;;;1.88;0.90;;;23.80;37.30;;;;;;5058809;28;20040;-50
2021/04/09 04:23:20;;;;;;;1.40;0.80;;;23.80;37.30;;;;;;5064359;28;20093;-53
2021/04/09 04:25:45;;;;;;;0.98;0.70;;;23.80;37.30;;;;;;5064268;28;20120;-54
2021/04/09 04:28:12;;;;;;;1.27;0.90;;;23.80;37.30;;;;;;5063395;28;20364;-54
2021/04/09 04:30:37;;;;;;;1.33;0.80;;;23.70;37.80;;;;;;5063250;28;20052;-54
2021/04/09 04:33:03;;;;;;;1.65;0.80;;;23.80;37.30;;;;;;5064336;28;20028;-56
2021/04/09 04:35:29;;;;;;;1.08;0.80;;;23.80;37.80;;;;;;5059322;28;20043;-56
2021/04/09 04:37:55;;;;;;;1.13;0.80;;;23.70;37.30;;;;;;5061260;28;20060;-56
2021/04/09 04:40:21;;;;;;;1.27;0.80;;;23.70;37.30;;;;;;5064407;28;20071;-57
2021/04/09 04:42:46;;;;;;;0.80;0.70;;;23.70;37.30;;;;;;5063171;28;20199;-52
2021/04/09 04:45:12;;;;;;;2.35;0.80;;;23.70;37.30;;;;;;5062573;28;20094;-55
2021/04/09 04:47:38;;;;;;;1.20;0.65;;;23.70;37.30;;;;;;5063663;28;20388;-53
2021/04/09 04:50:05;;;;;;;1.10;0.80;;;23.70;37.30;;;;;;5064633;28;20107;-56
2021/04/09 04:52:30;;;;;;;1.48;0.88;;;23.70;37.30;;;;;;5057807;28;20033;-56
2021/04/09 04:54:56;;;;;;;0.90;0.70;;;23.70;37.30;;;;;;5063385;28;20035;-52
2021/04/09 04:57:22;;;;;;;1.45;0.80;;;23.70;37.30;;;;;;5064614;28;20627;-54
2021/04/09 04:59:47;;;;;;;1.55;0.95;;;23.70;37.30;;;;;;5057067;28;20031;-55
2021/04/09 05:02:14;;;;;;;1.15;0.70;;;23.70;37.30;;;;;;5046256;28;20124;-57
2021/04/09 05:04:39;;;;;;;0.93;0.70;;;23.70;37.30;;;;;;5052980;28;20149;-55
2021/04/09 05:07:05;;;;;;;1.42;0.88;;;23.70;37.30;;;;;;5064564;28;20150;-56
2021/04/09 05:09:31;;;;;;;0.90;0.75;;;23.70;37.30;;;;;;5063746;28;20024;-57
2021/04/09 05:11:56;;;;;;;1.20;0.80;;;23.70;37.30;;;;;;5051752;28;20040;-54
2021/04/09 05:14:22;;;;;;;1.10;0.73;;;23.60;37.20;;;;;;5058734;28;20026;-53
2021/04/09 05:16:47;;;;;;;1.52;0.90;;;23.60;37.80;;;;;;5060267;28;20059;-51
2021/04/09 05:19:13;;;;;;;1.38;0.82;;;23.70;37.30;;;;;;5064264;28;20036;-49
2021/04/09 05:21:39;;;;;;;1.05;0.75;;;23.60;37.30;;;;;;5064367;28;20754;-50
2021/04/09 05:24:05;;;;;;;0.82;0.80;;;23.60;37.20;;;;;;5062836;28;20733;-55
2021/04/09 05:26:30;;;;;;;1.50;0.80;;;23.60;37.20;;;;;;5063416;28;20403;-55
2021/04/09 05:28:56;;;;;;;1.42;0.80;;;23.60;37.20;;;;;;5061979;28;20040;-55
2021/04/09 05:31:22;;;;;;;0.80;0.70;;;23.60;37.20;;;;;;5063142;28;20060;-56
2021/04/09 05:33:48;;;;;;;0.88;0.70;;;23.60;37.20;;;;;;5063408;28;20497;-54
2021/04/09 05:36:13;;;;;;;1.45;0.80;;;23.60;37.20;;;;;;5063565;28;20110;-56
2021/04/09 05:38:39;;;;;;;1.05;0.80;;;23.60;37.20;;;;;;5062220;28;20043;-53
2021/04/09 05:41:04;;;;;;;0.93;0.73;;;23.60;37.20;;;;;;5061627;28;20421;-54
2021/04/09 05:43:30;;;;;;;0.70;0.70;;;23.60;37.20;;;;;;5053273;28;20121;-54
2021/04/09 05:45:56;;;;;;;1.25;0.80;;;23.60;37.20;;;;;;5051596;28;20033;-51
2021/04/09 05:48:22;;;;;;;1.48;0.80;;;23.60;37.20;;;;;;5063505;28;20052;-53
2021/04/09 05:50:47;;;;;;;1.00;0.70;;;23.60;37.20;;;;;;5051624;28;20036;-56
2021/04/09 05:53:14;;;;;;;1.90;1.27;;;23.60;37.20;;;;;;5063531;28;20056;-52
2021/04/09 05:55:40;;;;;;;0.90;0.70;;;23.60;37.20;;;;;;5062887;28;20156;-55
2021/04/09 05:58:06;;;;;;;1.25;0.90;;;23.60;37.10;;;;;;5060862;28;20111;-57
2021/04/09 06:00:31;;;;;;;1.33;0.82;;;23.60;37.20;;;;;;5046443;28;20137;-56
2021/04/09 06:02:57;;;;;;;1.05;0.85;;;23.60;37.20;;;;;;5052569;28;20051;-56
2021/04/09 06:05:23;;;;;;;1.63;0.90;;;23.60;37.10;;;;;;5051681;28;20114;-53
2021/04/09 06:07:49;;;;;;;1.20;0.85;;;23.50;37.10;;;;;;5060401;28;20091;-51
2021/04/09 06:10:15;;;;;;;0.95;0.65;;;23.50;37.10;;;;;;5061425;28;20036;-52
2021/04/09 06:12:41;;;;;;;1.02;0.80;;;23.50;37.10;;;;;;5056044;28;20039;-54
2021/04/09 06:15:09;;;;;;;1.50;0.90;;;23.50;37.10;;;;;;5059814;28;20359;-55
2021/04/09 06:17:35;;;;;;;0.88;0.75;;;23.50;37.10;;;;;;5062367;28;20024;-57
2021/04/09 06:20:03;;;;;;;1.25;0.80;;;23.50;37.10;;;;;;5063812;28;20114;-53
2021/04/09 06:22:28;;;;;;;0.82;0.70;;;23.50;37.10;;;;;;5063872;28;20474;-55
2021/04/09 06:24:54;;;;;;;1.23;0.80;;;23.50;37.10;;;;;;5063392;28;20153;-56
2021/04/09 06:27:20;;;;;;;0.90;0.80;;;23.50;37.10;;;;;;5062230;28;20044;-58
2021/04/09 06:29:46;;;;;;;0.90;0.70;;;23.50;37.10;;;;;;5062704;28;20103;-54
2021/04/09 06:32:11;;;;;;;1.73;0.90;;;23.50;37.10;;;;;;5063301;28;20529;-56
2021/04/09 06:34:37;;;;;;;1.60;0.95;;;23.50;37.10;;;;;;5062534;28;20050;-52
2021/04/09 06:37:03;;;;;;;1.20;0.80;;;23.50;37.10;;;;;;5064177;28;20032;-51
2021/04/09 06:39:28;;;;;;;0.85;0.80;;;23.50;37.10;;;;;;5060007;28;20029;-55
2021/04/09 06:41:54;;;;;;;1.17;0.90;;;23.50;37.10;;;;;;5054712;28;20163;-57
2021/04/09 06:44:20;;;;;;;1.10;0.80;;;23.50;37.10;;;;;;5051832;28;20036;-53
2021/04/09 06:46:45;;;;;;;1.40;0.82;;;23.40;37.00;;;;;;5048525;28;20589;-57
2021/04/09 06:49:12;;;;;;;1.10;0.85;;;23.50;37.10;;;;;;5050744;28;20032;-50
2021/04/09 06:51:38;;;;;;;2.45;1.00;;;23.50;37.10;;;;;;5061831;28;20107;-54
2021/04/09 06:54:05;;;;;;;1.40;0.90;;;23.50;37.10;;;;;;5062256;28;20377;-51
2021/04/09 06:56:34;;;;;;;1.17;0.85;;;23.50;37.10;;;;;;5063493;28;20039;-53
2021/04/09 06:58:59;;;;;;;1.30;0.90;;;23.50;37.00;;;;;;5055847;28;20562;-52
2021/04/09 07:01:26;;;;;;;1.33;0.90;;;23.50;36.90;;;;;;5053504;28;20262;-53
2021/04/09 07:03:56;;;;;;;1.23;0.88;;;23.50;37.00;;;;;;5058562;28;20044;-51
2021/04/09 07:06:21;;;;;;;1.40;0.90;;;23.50;36.80;;;;;;5056206;28;20126;-53
2021/04/09 07:08:47;;;;;;;1.88;0.82;;;23.50;36.80;;;;;;5058223;28;20066;-55
2021/04/09 07:11:13;;;;;;;1.40;0.90;;;23.40;36.70;;;;;;5057206;28;20555;-50
2021/04/09 07:13:52;;;;;;;1.85;1.00;;;23.50;36.70;;;;;;5048066;28;20025;-51
2021/04/09 07:16:18;;;;;;;;;;;23.50;36.60;;;;;;5055871;28;20406;-54
2021/04/09 07:18:48;;;;;;;1.40;1.10;;;23.50;36.50;;;;;;5061615;28;19912;-51
2021/04/09 07:21:40;;;;;;;3.13;0.98;;;23.40;36.50;;;;;;5064594;28;20364;-59
2021/04/09 07:24:17;;;;;;;1.80;1.00;;;23.50;36.40;;;;;;5062844;28;20139;-59
2021/04/09 07:26:45;;;;;;;1.70;1.10;;;23.40;36.40;;;;;;5065739;28;20032;-55
2021/04/09 07:29:31;;;;;;;1.80;1.03;;;23.40;36.40;;;;;;5060615;28;20403;-57
2021/04/09 07:32:15;;;;;;;1.83;1.00;;;23.50;36.50;;;;;;5057644;28;20036;-59
2021/04/09 07:34:53;;;;;;;1.48;1.00;;;23.40;36.40;;;;;;5062924;28;20478;-55
2021/04/09 07:37:23;;;;;;;1.35;0.93;;;23.50;36.50;;;;;;5065721;28;20120;-50
2021/04/09 07:40:16;;;;;;;1.80;1.00;;;23.50;36.50;;;;;;5065351;28;20055;-59
2021/04/09 07:42:42;;;;;;;1.10;0.90;;;23.40;36.50;;;;;;5064276;28;20119;-53
2021/04/09 07:45:11;;;;;;;1.50;0.90;;;23.50;36.50;;;;;;5060984;28;20217;-56
2021/04/09 07:47:39;;;;;;;1.80;0.90;;;23.40;36.50;;;;;;5062266;28;20124;-55
2021/04/09 07:50:14;;;;;;;1.55;1.00;;;23.40;36.50;;;;;;5059113;28;20037;-55
2021/04/09 07:52:46;;;;;;;2.42;1.10;;;23.50;36.60;;;;;;5059380;28;20169;-54
2021/04/09 07:55:17;;;;;;;2.17;1.13;;;23.50;36.70;;;;;;5062350;28;20020;-52
2021/04/09 07:57:43;;;;;;;1.58;1.00;;;23.50;36.60;;;;;;5060182;28;20379;-51
2021/04/09 08:00:23;;;;;;;3.03;1.10;;;23.50;36.70;;;;;;5061945;28;20028;-54
2021/04/09 08:02:51;;;;;;;1.95;1.20;;;23.50;36.70;;;;;;5052761;28;20028;-49
2021/04/09 08:05:19;;;;;;;1.67;1.00;;;23.50;36.70;;;;;;5063899;28;20216;-56
2021/04/09 08:07:45;;;;;;;1.90;1.00;;;23.50;36.70;;;;;;5062321;28;20036;-54
2021/04/09 08:10:13;;;;;;;1.65;0.98;;;23.50;36.70;;;;;;5062016;28;20462;-48
2021/04/09 08:12:39;;;;;;;1.92;1.10;;;23.50;36.80;;;;;;5061658;28;20106;-56
2021/04/09 08:15:23;;;;;;;1.80;0.90;;;23.50;36.80;;;;;;5054671;28;20114;-51
2021/04/09 08:18:27;;;;;;;1.60;1.00;;;23.50;36.80;;;;;;5060532;28;20316;-55
2021/04/09 08:20:52;;;;;;;1.92;1.00;;;23.50;36.80;;;;;;5063730;28;20031;-51
2021/04/09 08:23:18;;;;;;;2.00;1.10;;;23.50;36.80;;;;;;5063256;28;20025;-51
2021/04/09 08:25:44;;;;;;;2.45;1.00;;;23.50;36.90;;;;;;5058171;28;20024;-57
2021/04/09 08:28:12;;;;;;;1.60;1.00;;;23.50;36.90;;;;;;5064412;28;20090;-51
2021/04/09 08:30:38;;;;;;;1.73;1.10;;;23.50;36.90;;;;;;5062859;28;20039;-52
2021/04/09 08:33:06;;;;;;;1.60;1.00;;;23.50;36.90;;;;;;5063131;28;20032;-50
2021/04/09 08:35:32;;;;;;;1.80;1.08;;;23.50;37.00;;;;;;5062943;28;20035;-55
2021/04/09 08:37:59;;;;;;;1.85;1.15;;;23.50;37.00;;;;;;5064073;28;20032;-53
2021/04/09 08:40:25;;;;;;;1.83;0.98;;;23.50;37.00;;;;;;5063633;28;20459;-53
2021/04/09 08:42:51;;;;;;;1.30;0.90;;;23.50;37.00;;;;;;5062428;28;20032;-54
2021/04/09 08:45:18;;;;;;;2.10;1.05;;;23.50;37.00;;;;;;5063000;28;20060;-49
2021/04/09 08:47:46;;;;;;;1.67;1.10;;;23.50;37.00;;;;;;5061580;28;20060;-48
2021/04/09 08:50:14;;;;;;;1.65;0.90;;;23.50;37.00;;;;;;5062734;28;20020;-49
2021/04/09 08:52:43;;;;;;;1.67;1.05;;;23.60;37.10;;;;;;5063242;28;20368;-53
2021/04/09 08:55:11;;;;;;;1.52;0.90;;;23.50;37.10;;;;;;5062054;28;20048;-56
2021/04/09 08:57:39;;;;;;;2.60;1.08;;;23.50;37.10;;;;;;5060705;28;20040;-53
2021/04/09 09:00:14;;;;;;;1.65;1.15;;;23.50;37.10;;;;;;5059165;28;20167;-52
2021/04/09 09:02:43;;;;;;;1.50;0.90;;;23.50;37.10;;;;;;5035835;28;20101;-52
2021/04/09 09:05:12;;;;;;;2.38;1.00;;;23.50;37.10;;;;;;5040226;28;20063;-52
2021/04/09 09:07:51;;;;;;;2.42;1.13;;;23.50;37.20;;;;;;5039246;28;20021;-54
2021/04/09 09:10:20;;;;;;;2.03;1.20;;;23.50;37.10;;;;;;5042492;28;20474;-50
2021/04/09 09:13:08;;;;;;;1.92;0.90;;;23.60;37.20;;;;;;5041725;28;20495;-52
2021/04/09 09:15:46;;;;;;;1.83;1.10;;;23.50;37.20;;;;;;5041410;28;20052;-53
2021/04/09 09:18:24;;;;;;;1.60;0.90;;;23.50;37.20;;;;;;5038555;28;20029;-52
2021/04/09 09:21:10;;;;;;;3.25;1.20;;;23.60;37.30;;;;;;5027933;28;20419;-52
2021/04/09 09:23:46;;;;;;;2.88;1.00;;;23.50;37.20;;;;;;5038911;28;20182;-57
2021/04/09 09:26:33;;;;;;;2.40;0.90;;;23.50;37.20;;;;;;5041925;28;20043;-55
2021/04/09 09:29:21;;;;;;;1.83;1.00;;;23.60;37.30;;;;;;5036474;28;20968;-56
2021/04/09 09:31:47;;;;;;;1.87;1.07;;;23.50;37.30;;;;;;5055597;28;20043;-55
2021/04/09 09:34:24;;;;;;;1.85;0.90;;;23.50;37.30;;;;;;5060241;28;20028;-53
2021/04/09 09:37:11;;;;;;;1.95;1.20;;;23.50;37.40;;;;;;5063880;28;20040;-47
2021/04/09 09:39:40;;;;;;;2.60;1.20;;;23.50;37.40;;;;;;5059876;28;20021;-50
2021/04/09 09:42:29;;;;;;;2.22;1.20;;;23.50;37.40;;;;;;5052278;28;20044;-50
2021/04/09 09:45:04;;;;;;;2.47;1.20;;;23.50;37.40;;;;;;5052103;28;20097;-51
2021/04/09 09:47:35;;;;;;;1.60;0.90;;;23.50;37.40;;;;;;5062645;28;20128;-54
2021/04/09 09:50:22;;;;;;;2.88;0.90;;;23.50;37.40;;;;;;5057057;28;20070;-54
2021/04/09 09:52:59;;;;;;;3.50;1.02;;;23.50;37.50;;;;;;5060478;28;20116;-49
2021/04/09 09:55:29;;;;;;;2.05;1.00;;;23.50;37.50;;;;;;5056081;28;20036;-53
2021/04/09 09:57:56;;;;;;;3.63;1.10;;;23.50;37.50;;;;;;5055594;28;20033;-49
2021/04/09 10:00:37;;;;;;;1.83;1.10;;;23.50;37.50;;;;;;5057539;28;20419;-53
2021/04/09 10:03:23;;;;;;;3.58;1.10;;;23.50;37.50;;;;;;5060066;28;20432;-56
2021/04/09 10:05:54;;;;;;;2.10;0.93;;;23.60;37.50;;;;;;5054142;28;20036;-54
2021/04/09 10:08:24;;;;;;;2.88;1.20;;;23.50;37.50;;;;;;5058796;28;20108;-49
2021/04/09 10:10:59;;;;;;;1.85;1.08;;;23.50;37.50;;;;;;5058480;28;20043;-52
2021/04/09 10:13:29;;;;;;;2.05;1.08;;;23.60;37.60;;;;;;5062333;28;20140;-49
2021/04/09 10:16:09;;;;;;;3.65;1.10;;;23.50;37.50;;;;;;5056848;28;20029;-49
2021/04/09 10:18:36;;;;;;;2.60;1.05;;;23.50;37.60;;;;;;5057519;28;20818;-55
2021/04/09 10:21:08;;;;;;;1.98;1.02;;;23.50;37.60;;;;;;5049178;28;20096;-53
2021/04/09 10:23:34;;;;;;;2.85;1.20;;;23.60;37.60;;;;;;5062342;28;20032;-50
2021/04/09 10:26:00;;;;;;;2.25;1.00;;;23.50;37.60;;;;;;5063782;28;20325;-49
2021/04/09 10:28:25;;;;;;;2.28;1.10;;;23.60;37.70;;;;;;5063376;28;20031;-51
2021/04/09 10:30:53;;;;;;;2.80;1.10;;;23.60;37.70;;;;;;5061913;28;20171;-55
2021/04/09 10:33:19;;;;;;;1.73;1.00;;;23.60;37.80;;;;;;5053275;28;20701;-52
2021/04/09 10:35:45;;;;;;;3.85;1.02;;;23.60;37.70;;;;;;5052715;28;20487;-55
2021/04/09 10:38:12;;;;;;;1.88;1.10;;;23.60;37.80;;;;;;5059488;28;20024;-50
2021/04/09 10:40:54;;;;;;;2.50;1.00;;;23.60;37.80;;;;;;5060735;28;20032;-49
2021/04/09 10:43:30;;;;;;;4.13;1.02;;;23.60;37.80;;;;;;5052831;28;20038;-51
2021/04/09 10:46:11;;;;;;;3.45;1.55;;;23.60;37.80;;;;;;5062679;28;20086;-57
2021/04/09 10:48:37;;;;;;;1.85;1.08;;;23.60;37.80;;;;;;5056580;28;20040;-56
2021/04/09 10:51:03;;;;;;;3.60;1.17;;;23.60;37.80;;;;;;5059542;28;20529;-58
2021/04/09 10:53:29;;;;;;;2.75;1.00;;;23.60;37.80;;;;;;5059310;28;20025;-54
2021/04/09 10:56:04;;;;;;;4.20;1.25;;;23.60;38.30;;;;;;5064329;28;20656;-57
2021/04/09 10:58:30;;;;;;;2.80;1.10;;;23.60;37.80;;;;;;5057791;28;20100;-57
2021/04/09 11:00:56;;;;;;;1.90;0.90;;;23.60;37.80;;;;;;5052370;28;20095;-50
2021/04/09 11:03:21;;;;;;;2.92;1.10;;;23.60;37.80;;;;;;5058744;28;20399;-55
2021/04/09 11:05:47;;;;;;;3.45;1.20;;;23.60;37.80;;;;;;5064560;28;20115;-51
2021/04/09 11:08:29;;;;;;;5.07;1.10;;;23.60;37.80;;;;;;5060323;28;20024;-48
2021/04/09 11:11:11;;;;;;;3.05;1.00;;;23.60;37.80;;;;;;5069144;28;20073;-51
2021/04/09 11:13:42;;;;;;;3.45;1.33;;;23.60;37.80;;;;;;5074946;28;20461;-56
2021/04/09 11:16:11;;;;;;;4.25;2.08;;;23.60;37.80;;;;;;5076224;28;20028;-56
2021/04/09 11:18:56;;;;;;;;;;;23.60;37.80;;;;;;5071873;28;20484;-53
2021/04/09 11:21:48;;;;;;;5.88;3.50;;;23.60;37.90;;;;;;5094265;28;20381;-53
2021/04/09 11:24:20;;;;;;;10.55;5.35;;;23.60;37.90;;;;;;5077992;28;20024;-52
2021/04/09 11:26:46;;;;;;;8.95;5.70;;;23.60;38.00;;;;;;5078809;28;20036;-52
2021/04/09 11:29:21;;;;;;;10.77;6.85;;;23.60;38.00;;;;;;5066717;28;20024;-53
2021/04/09 11:31:46;;;;;;;12.95;7.45;;;23.60;38.10;;;;;;5067301;28;20391;-48
2021/04/09 11:34:12;;;;;;;14.82;8.55;;;23.60;38.10;;;;;;5063223;28;20025;-52
2021/04/09 11:36:45;;;;;;;16.63;9.45;;;23.60;38.10;;;;;;5063710;28;20071;-53
2021/04/09 11:39:16;;;;;;;14.65;9.25;;;23.60;38.20;;;;;;5063173;28;20407;-52
2021/04/09 11:41:45;;;;;;;15.88;9.90;;;23.60;38.20;;;;;;5063007;28;20414;-54
2021/04/09 11:44:46;;;;;;;19.00;10.50;;;23.60;38.20;;;;;;5054794;28;20028;-56
2021/04/09 11:47:17;;;;;;;16.45;9.63;;;23.60;38.30;;;;;;5056222;28;20044;-55
2021/04/09 11:49:44;;;;;;;16.85;10.07;;;23.60;38.30;;;;;;5061259;28;20060;-57
2021/04/09 11:52:09;;;;;;;15.68;9.68;;;23.60;38.30;;;;;;5059360;28;20039;-56
2021/04/09 11:54:38;;;;;;;15.05;9.88;;;23.60;38.40;;;;;;5060877;28;20024;-52
2021/04/09 11:57:04;;;;;;;17.05;9.48;;;23.70;38.40;;;;;;5050896;28;20025;-54
2021/04/09 11:59:34;;;;;;;15.70;9.82;;;23.60;38.40;;;;;;5050292;28;20036;-50
2021/04/09 12:02:21;;;;;;;15.50;9.60;;;23.60;38.40;;;;;;5055728;28;20467;-56
2021/04/09 12:04:48;;;;;;;16.20;9.80;;;23.70;39.00;;;;;;5061448;28;20036;-53
2021/04/09 12:07:25;;;;;;;13.00;8.63;;;23.70;38.50;;;;;;5064761;28;20505;-51
2021/04/09 12:09:52;;;;;;;14.45;8.77;;;23.70;38.50;;;;;;5064684;28;20029;-56
2021/04/09 12:12:19;;;;;;;13.82;8.80;;;23.70;38.50;;;;;;5067572;28;20025;-51
2021/04/09 12:14:53;;;;;;;14.25;8.15;;;23.70;38.50;;;;;;5067024;28;20033;-52
2021/04/09 12:17:21;;;;;;;14.63;7.88;;;23.70;38.40;;;;;;5051818;28;20068;-53
2021/04/09 12:19:49;;;;;;;14.63;8.25;;;23.70;38.50;;;;;;5076372;28;20551;-55
2021/04/09 12:22:16;;;;;;;13.93;7.65;;;23.70;39.00;;;;;;5062149;28;20390;-53
2021/04/09 12:24:42;;;;;;;12.32;7.53;;;23.70;38.40;;;;;;5063149;28;20032;-55
2021/04/09 12:27:10;;;;;;;12.07;7.30;;;23.70;38.40;;;;;;5062487;28;20124;-55
2021/04/09 12:29:37;;;;;;;11.77;6.95;;;23.70;38.40;;;;;;5064800;28;20123;-52
2021/04/09 12:32:05;;;;;;;11.68;6.55;;;23.70;38.40;;;;;;5064288;28;20048;-57
2021/04/09 12:34:30;;;;;;;11.63;6.78;;;23.70;38.40;;;;;;5063363;28;20671;-54
2021/04/09 12:36:56;;;;;;;10.85;6.53;;;23.70;38.30;;;;;;5083659;28;20093;-53
2021/04/09 12:39:22;;;;;;;10.93;6.28;;;23.70;38.30;;;;;;5068142;28;20032;-59
2021/04/09 12:41:49;;;;;;;9.80;6.00;;;23.70;38.20;;;;;;5068225;28;20086;-54
2021/04/09 12:44:16;;;;;;;9.35;5.50;;;23.80;38.30;;;;;;5077565;28;20072;-56
2021/04/09 12:46:44;;;;;;;9.35;5.38;;;23.80;38.20;;;;;;5062668;28;20043;-55
2021/04/09 12:49:10;;;;;;;10.40;5.22;;;23.80;38.20;;;;;;5061405;28;20108;-54
2021/04/09 12:51:36;;;;;;;8.93;5.53;;;23.80;38.20;;;;;;5060495;28;20028;-53
2021/04/09 12:54:03;;;;;;;8.88;5.68;;;23.80;38.10;;;;;;5060359;28;20021;-53
2021/04/09 12:56:29;;;;;;;8.57;4.60;;;23.80;38.10;;;;;;5057935;28;20024;-50